Time;durP1;ratioP1;P1;durP2;ratioP2;P2;SDS_P1;SDS_P2;PMS_P1;PMS_P2;Temp;Humidity;BMP_temperature;BMP_pressure;BME280_temperature;BME280_humidity;BME280_pressure;Samples;Min_cycle;Max_cycle;Signal;HPM_P1;HPM_P2
2023/10/23 00:01:53;;;;;;;1.52;0.82;;;;;;;-1.09;61.75;96933.34;6282477;28;20040;-68
2023/10/23 00:04:54;;;;;;;1.98;1.25;;;;;;;-1.14;62.20;96925.66;6285282;28;20127;-68
2023/10/23 00:07:58;;;;;;;3.22;1.08;;;;;;;-1.18;62.47;96926.59;6277598;28;20528;-68
2023/10/23 00:11:03;;;;;;;;;;;;;;;-1.22;61.34;96932.72;6275690;28;20045;-68
2023/10/23 00:14:04;;;;;;;2.03;1.20;;;;;;;-1.23;62.08;96931.00;6281404;28;20046;-68
2023/10/23 00:17:08;;;;;;;1.95;1.60;;;;;;;-1.20;62.07;96930.94;6286620;28;20070;-67
2023/10/23 00:20:10;;;;;;;1.65;1.13;;;;;;;-1.21;62.56;96928.41;6267232;28;20179;-68
2023/10/23 00:23:12;;;;;;;1.77;1.35;;;;;;;-1.20;61.89;96949.00;6267368;28;20049;-68
2023/10/23 00:26:13;;;;;;;2.58;1.42;;;;;;;-1.30;62.61;96913.03;6289177;28;20637;-69
2023/10/23 00:29:17;;;;;;;3.22;1.45;;;;;;;-1.13;62.06;96937.72;6284548;28;20040;-67
2023/10/23 00:32:23;;;;;;;1.83;1.20;;;;;;;-1.15;62.78;96933.44;6271905;28;20135;-68
2023/10/23 00:35:31;;;;;;;2.80;1.08;;;;;;;-1.21;62.86;96933.56;6287859;28;20424;-69
2023/10/23 00:38:35;;;;;;;3.72;1.48;;;;;;;-1.18;62.37;96933.50;6280669;28;21107;-68
2023/10/23 00:41:38;;;;;;;3.25;1.52;;;;;;;-1.18;62.47;96933.50;6280614;28;20174;-68
2023/10/23 00:44:44;;;;;;;1.80;1.52;;;;;;;-1.23;63.37;96937.91;6281489;28;20056;-68
2023/10/23 00:47:48;;;;;;;1.63;1.15;;;;;;;-1.24;62.99;96934.47;6284918;28;20618;-68
2023/10/23 00:50:58;;;;;;;3.42;2.00;;;;;;;-1.13;62.67;96944.63;6281189;28;20048;-67
2023/10/23 00:54:02;;;;;;;2.58;1.50;;;;;;;-1.24;63.06;96933.63;6285257;28;20139;-67
2023/10/23 00:57:09;;;;;;;4.10;1.83;;;;;;;-1.18;63.26;96954.16;6267611;28;20041;-68
2023/10/23 01:00:13;;;;;;;2.28;1.63;;;;;;;-1.11;62.84;96940.25;6272458;28;20416;-68
2023/10/23 01:03:20;;;;;;;3.58;2.00;;;;;;;-1.26;62.73;96933.63;6270256;28;20037;-68
2023/10/23 01:06:23;;;;;;;;;;;;;;;-1.21;62.39;96943.88;6279582;28;20424;-68
2023/10/23 01:09:26;;;;;;;1.70;1.60;;;;;;;-1.34;63.05;96943.22;6279169;28;19924;-68
2023/10/23 01:12:28;;;;;;;3.50;1.90;;;;;;;-1.40;63.14;96933.00;6280471;28;20081;-69
2023/10/23 01:15:35;;;;;;;3.78;1.85;;;;;;;-1.35;62.57;96941.53;6266053;28;20057;-68
2023/10/23 01:18:41;;;;;;;3.35;1.95;;;;;;;-1.34;62.64;96944.97;6279876;28;20037;-68
2023/10/23 01:21:45;;;;;;;3.20;1.40;;;;;;;-1.34;63.36;96948.38;6288401;28;20277;-67
2023/10/23 01:24:52;;;;;;;3.55;1.73;;;;;;;-1.42;62.82;96953.66;6283475;28;20044;-68
2023/10/23 01:27:59;;;;;;;5.43;1.55;;;;;;;-1.44;62.76;96958.03;6249903;28;20036;-68
2023/10/23 01:31:02;;;;;;;3.08;1.70;;;;;;;-1.43;63.46;96954.56;6280893;28;20028;-70
2023/10/23 01:34:10;;;;;;;2.22;1.70;;;;;;;-1.43;62.55;96964.88;6279946;28;20424;-68
2023/10/23 01:37:14;;;;;;;3.22;1.75;;;;;;;-1.36;63.19;96960.47;6268027;28;20239;-69
2023/10/23 01:40:24;;;;;;;3.75;2.17;;;;;;;-1.29;63.13;96958.66;6278403;28;20037;-69
2023/10/23 01:43:28;;;;;;;1.80;1.65;;;;;;;-1.25;62.90;96968.03;6284035;28;20042;-68
2023/10/23 01:46:35;;;;;;;2.60;1.55;;;;;;;-1.22;62.96;96970.56;6268236;28;20044;-69
2023/10/23 01:49:38;;;;;;;1.42;1.27;;;;;;;-1.18;62.78;96969.66;6283303;28;20040;-68
2023/10/23 01:52:42;;;;;;;3.08;1.80;;;;;;;-1.17;63.14;96989.41;6285956;28;20499;-68
2023/10/23 01:55:48;;;;;;;4.40;2.40;;;;;;;-1.15;63.35;96992.84;6278351;28;20060;-68
2023/10/23 01:58:51;;;;;;;3.88;2.10;;;;;;;-1.16;63.39;96994.56;6283562;28;20759;-68
2023/10/23 02:01:55;;;;;;;4.05;2.30;;;;;;;-1.10;62.85;96993.63;6282280;28;20072;-68
2023/10/23 02:05:00;;;;;;;5.00;2.63;;;;;;;-1.11;63.32;96991.03;6287865;28;20040;-68
2023/10/23 02:08:02;;;;;;;2.97;2.13;;;;;;;-1.11;63.41;96991.91;6265020;28;20041;-69
2023/10/23 02:11:08;;;;;;;3.10;1.90;;;;;;;-1.05;63.05;96986.63;6281888;28;20072;-68
2023/10/23 02:14:12;;;;;;;3.92;2.28;;;;;;;-1.11;62.91;96989.31;6274523;28;20496;-68
2023/10/23 02:17:15;;;;;;;1.70;1.30;;;;;;;-1.06;63.21;96990.09;6267558;28;20106;-68
2023/10/23 02:20:19;;;;;;;4.18;1.95;;;;;;;-1.01;62.71;96993.44;6286035;28;20098;-68
2023/10/23 02:23:21;;;;;;;3.58;1.65;;;;;;;-1.06;63.19;96999.56;6275299;28;20045;-68
2023/10/23 02:26:27;;;;;;;2.80;2.30;;;;;;;-1.14;63.19;96994.53;6278679;28;20500;-68
2023/10/23 02:29:33;;;;;;;5.35;2.42;;;;;;;-1.10;63.59;97003.06;6278398;28;20044;-68
2023/10/23 02:32:38;;;;;;;6.20;2.50;;;;;;;-1.14;63.59;96991.94;6282118;28;21458;-68
2023/10/23 02:35:44;;;;;;;4.75;2.55;;;;;;;-1.06;63.32;96995.25;6280426;28;20079;-67
2023/10/23 02:38:48;;;;;;;5.47;2.80;;;;;;;-1.14;63.51;96973.88;6284617;28;20044;-69
2023/10/23 02:41:54;;;;;;;5.25;2.60;;;;;;;-1.16;63.42;96984.25;6278554;28;20048;-69
2023/10/23 02:44:56;;;;;;;7.50;3.22;;;;;;;-1.09;63.78;96997.03;6279915;28;20415;-68
2023/10/23 02:48:02;;;;;;;7.72;3.25;;;;;;;-1.10;62.93;97010.81;6284677;28;20047;-69
2023/10/23 02:51:07;;;;;;;6.55;3.22;;;;;;;-1.16;63.47;97001.44;6276241;28;20032;-69
2023/10/23 02:54:12;;;;;;;6.63;2.92;;;;;;;-1.16;63.47;96998.84;6279057;28;20067;-68
2023/10/23 02:57:16;;;;;;;6.13;3.17;;;;;;;-1.09;63.27;97022.88;6271711;28;20048;-68
2023/10/23 03:00:21;;;;;;;3.70;3.13;;;;;;;-1.09;63.66;97020.28;6277039;28;20060;-68
2023/10/23 03:03:29;;;;;;;6.40;3.50;;;;;;;-1.09;63.25;97005.63;6263944;28;20036;-68
2023/10/23 03:06:34;;;;;;;5.78;3.58;;;;;;;-1.02;62.81;97002.09;6275861;28;20044;-69
2023/10/23 03:09:38;;;;;;;7.32;3.22;;;;;;;-0.99;63.44;97012.38;6279464;28;20409;-67
2023/10/23 03:12:40;;;;;;;4.32;2.97;;;;;;;-0.85;63.81;97021.59;6278831;28;20040;-68
2023/10/23 03:15:44;;;;;;;6.03;2.95;;;;;;;-0.79;63.30;97021.47;6277942;28;20040;-68
2023/10/23 03:18:47;;;;;;;7.50;4.80;;;;;;;-0.69;63.18;97025.63;6277143;28;20045;-68
2023/10/23 03:21:57;;;;;;;7.03;3.22;;;;;;;-0.61;62.91;97028.91;6280629;28;20040;-68
2023/10/23 03:25:03;;;;;;;6.88;3.10;;;;;;;-0.56;62.92;97029.69;6277647;28;20539;-69
2023/10/23 03:28:10;;;;;;;5.68;3.50;;;;;;;-0.49;62.96;97039.03;6281216;28;20041;-68
2023/10/23 03:31:14;;;;;;;5.07;3.05;;;;;;;-0.45;63.05;97039.84;6262716;28;20040;-68
2023/10/23 03:34:19;;;;;;;5.53;3.35;;;;;;;-0.43;62.96;97042.38;6276443;28;20436;-68
2023/10/23 03:37:21;;;;;;;5.30;2.58;;;;;;;-0.36;62.92;97043.97;6277994;28;20040;-67
2023/10/23 03:40:24;;;;;;;7.65;3.60;;;;;;;-0.38;62.83;97041.41;6274569;28;20036;-68
2023/10/23 03:43:28;;;;;;;5.97;3.28;;;;;;;-0.32;62.70;97037.84;6275821;28;20125;-68
2023/10/23 03:46:34;;;;;;;4.80;2.92;;;;;;;-0.29;62.93;97030.88;6275229;28;20053;-68
2023/10/23 03:49:41;;;;;;;5.50;3.33;;;;;;;-0.25;62.54;97036.88;6277533;28;20515;-68
2023/10/23 03:52:45;;;;;;;13.52;6.72;;;;;;;-0.37;62.60;97013.81;6263334;28;20583;-68
2023/10/23 03:55:49;;;;;;;6.40;3.95;;;;;;;-0.08;62.03;97045.16;6278659;28;20463;-68
2023/10/23 03:58:50;;;;;;;5.47;2.70;;;;;;;0.05;62.00;97056.09;6275256;28;20051;-69
2023/10/23 04:01:54;;;;;;;5.50;2.83;;;;;;;0.13;62.25;97043.00;6260693;28;20595;-71
2023/10/23 04:05:04;;;;;;;3.90;2.90;;;;;;;0.27;61.04;97040.97;6279097;28;20044;-70
2023/10/23 04:08:11;;;;;;;4.43;2.72;;;;;;;0.37;60.87;97031.28;6275482;28;20283;-72
2023/10/23 04:11:19;;;;;;;5.20;2.63;;;;;;;0.50;60.53;97022.34;6278662;28;20093;-74
2023/10/23 04:14:23;;;;;;;4.30;2.67;;;;;;;0.72;59.88;97033.06;6259862;28;20036;-74
2023/10/23 04:17:27;;;;;;;3.95;2.50;;;;;;;0.93;59.61;97031.69;6275943;28;20032;-75
2023/10/23 04:20:31;;;;;;;3.92;3.00;;;;;;;1.17;59.28;97029.41;6283716;28;20139;-74
2023/10/23 04:23:42;;;;;;;6.75;2.60;;;;;;;1.24;58.66;97016.22;6276361;28;20059;-74
2023/10/23 04:26:51;;;;;;;4.50;2.47;;;;;;;1.47;58.45;97027.75;6276905;28;20101;-74
2023/10/23 04:30:00;;;;;;;3.17;2.42;;;;;;;1.46;58.08;97026.06;6243448;28;20052;-66
2023/10/23 04:33:09;;;;;;;4.57;2.40;;;;;;;1.59;58.19;97032.63;6281676;28;20033;-64
2023/10/23 04:36:13;;;;;;;4.93;2.60;;;;;;;1.56;57.13;97028.38;6276696;28;20067;-70
2023/10/23 04:39:15;;;;;;;5.75;3.40;;;;;;;1.53;57.86;97037.97;6277939;28;20079;-65
2023/10/23 04:42:17;;;;;;;3.40;2.42;;;;;;;1.76;57.14;97040.81;6277976;28;20048;-66
2023/10/23 04:45:21;;;;;;;3.92;2.00;;;;;;;1.63;57.03;97031.63;6278335;28;20041;-68
2023/10/23 04:48:25;;;;;;;3.25;2.20;;;;;;;1.57;56.79;97034.41;6284808;28;20036;-66
2023/10/23 04:51:29;;;;;;;4.82;3.10;;;;;;;1.58;56.82;97030.91;6288932;28;20056;-67
2023/10/23 04:54:37;;;;;;;2.85;2.10;;;;;;;1.72;56.91;97052.13;6280221;28;20535;-67
2023/10/23 04:57:43;;;;;;;4.13;2.45;;;;;;;1.68;55.78;97037.56;6282639;28;20052;-65
2023/10/23 05:00:48;;;;;;;5.43;2.65;;;;;;;1.62;56.24;97042.91;6284470;28;20071;-66
2023/10/23 05:03:51;;;;;;;4.05;2.53;;;;;;;1.60;56.32;97049.88;6284896;28;20041;-65
2023/10/23 05:06:56;;;;;;;2.83;2.00;;;;;;;1.67;56.37;97035.88;6282273;28;20488;-67
2023/10/23 05:10:04;;;;;;;4.40;2.33;;;;;;;1.70;55.52;97028.00;6279807;28;20571;-68
2023/10/23 05:13:14;;;;;;;3.17;2.25;;;;;;;1.72;55.58;97030.53;6282952;28;20037;-68
2023/10/23 05:16:18;;;;;;;4.35;2.60;;;;;;;1.67;55.64;97029.81;6280594;28;20052;-68
2023/10/23 05:19:26;;;;;;;2.47;1.98;;;;;;;1.71;55.65;97034.03;6286314;28;20093;-68
2023/10/23 05:22:29;;;;;;;3.78;2.25;;;;;;;1.79;55.54;97053.69;6281454;28;20037;-70
2023/10/23 05:25:35;;;;;;;3.88;1.90;;;;;;;1.83;55.48;97048.41;6281964;28;20045;-67
2023/10/23 05:28:42;;;;;;;2.25;2.05;;;;;;;1.92;55.26;97040.38;6276380;28;20051;-69
2023/10/23 05:31:44;;;;;;;3.38;2.10;;;;;;;1.97;55.24;97044.53;6282027;28;20181;-67
2023/10/23 05:34:48;;;;;;;4.75;2.47;;;;;;;2.02;55.00;97041.81;6284241;28;20041;-68
2023/10/23 05:37:56;;;;;;;2.42;2.10;;;;;;;1.82;55.59;97028.56;6279768;28;20048;-66
2023/10/23 05:41:07;;;;;;;2.42;1.98;;;;;;;1.92;55.84;97048.16;6281925;28;20043;-69
2023/10/23 05:44:12;;;;;;;2.28;1.70;;;;;;;1.98;55.86;97035.00;6279971;28;20044;-73
2023/10/23 05:47:16;;;;;;;2.58;2.28;;;;;;;2.01;55.35;97034.94;6281721;28;20044;-67
2023/10/23 05:50:18;;;;;;;2.13;1.80;;;;;;;1.95;55.18;97014.31;6283995;28;20040;-65
2023/10/23 05:53:19;;;;;;;3.83;1.23;;;;;;;1.97;55.65;96997.81;6287837;28;20559;-64
2023/10/23 05:56:23;;;;;;;4.03;1.73;;;;;;;1.85;55.21;97002.53;6274268;28;20048;-65
2023/10/23 05:59:25;;;;;;;2.83;1.48;;;;;;;1.79;55.78;97004.41;6288777;28;20428;-65
2023/10/23 06:02:30;;;;;;;1.80;1.50;;;;;;;1.73;56.27;96999.38;6278280;28;20419;-67
2023/10/23 06:05:38;;;;;;;2.72;1.60;;;;;;;1.80;56.33;96994.84;6281092;28;20053;-66
2023/10/23 06:08:42;;;;;;;3.05;1.45;;;;;;;1.82;55.62;97000.88;6285579;28;20036;-66
2023/10/23 06:11:43;;;;;;;2.33;1.92;;;;;;;1.77;56.20;97006.16;6289716;28;20687;-66
2023/10/23 06:14:45;;;;;;;3.38;2.20;;;;;;;1.74;56.71;97010.59;6284896;28;20044;-67
2023/10/23 06:17:48;;;;;;;5.10;2.50;;;;;;;1.90;55.80;97016.22;6284379;28;20531;-65
2023/10/23 06:21:00;;;;;;;8.43;3.17;;;;;;;1.85;56.14;97015.50;6281811;28;20062;-66
2023/10/23 06:24:08;;;;;;;4.97;2.65;;;;;;;1.67;56.71;97007.34;6264190;28;20045;-66
2023/10/23 06:27:10;;;;;;;4.68;1.33;;;;;;;1.87;56.81;97006.78;6285624;28;20047;-66
2023/10/23 06:30:12;;;;;;;4.22;1.98;;;;;;;1.72;56.43;97008.03;6286987;28;20124;-66
2023/10/23 06:33:13;;;;;;;4.32;1.80;;;;;;;1.77;56.87;97020.88;6287352;28;20799;-67
2023/10/23 06:36:17;;;;;;;3.60;2.03;;;;;;;1.93;56.35;97016.13;6271545;28;20148;-65
2023/10/23 06:39:23;;;;;;;2.35;1.95;;;;;;;1.95;56.39;96988.38;6285028;28;20048;-66
2023/10/23 06:42:29;;;;;;;2.63;1.98;;;;;;;1.70;56.78;96994.28;6282904;28;20055;-65
2023/10/23 06:45:36;;;;;;;2.28;1.73;;;;;;;1.85;56.56;96992.16;6279623;28;20052;-65
2023/10/23 06:48:44;;;;;;;4.45;2.00;;;;;;;1.71;57.43;97008.94;6278780;28;20175;-66
2023/10/23 06:51:48;;;;;;;5.70;1.70;;;;;;;1.97;57.01;96989.19;6280897;28;20044;-66
2023/10/23 06:54:57;;;;;;;2.70;2.10;;;;;;;1.89;56.79;96999.78;6280054;28;20151;-65
2023/10/23 06:58:01;;;;;;;4.93;3.25;;;;;;;1.74;57.68;96995.88;6282738;28;20570;-65
2023/10/23 07:01:08;;;;;;;5.72;3.13;;;;;;;1.87;57.70;96975.66;6279248;28;20040;-70
2023/10/23 07:04:10;;;;;;;4.22;3.03;;;;;;;2.02;57.57;96979.53;6275221;28;20052;-66
2023/10/23 07:07:17;;;;;;;3.92;3.17;;;;;;;2.17;57.13;96988.59;6277213;28;20044;-65
2023/10/23 07:10:24;;;;;;;7.30;4.38;;;;;;;2.30;57.26;96989.94;6270110;28;20056;-66
2023/10/23 07:13:30;;;;;;;5.50;4.00;;;;;;;2.33;57.58;96994.19;6278999;28;20036;-65
2023/10/23 07:16:34;;;;;;;5.32;3.45;;;;;;;2.45;57.27;96992.06;6284602;28;20186;-65
2023/10/23 07:19:36;;;;;;;7.20;4.28;;;;;;;2.32;57.54;97011.53;6284466;28;20052;-67
2023/10/23 07:22:37;;;;;;;3.90;3.05;;;;;;;2.34;57.60;96981.16;6281765;28;20457;-66
2023/10/23 07:25:43;;;;;;;4.05;2.22;;;;;;;2.51;57.05;96988.44;6283068;28;20123;-66
2023/10/23 07:28:48;;;;;;;1.55;1.33;;;;;;;2.45;56.92;96968.69;6280789;28;20036;-65
2023/10/23 07:31:49;;;;;;;3.05;2.38;;;;;;;2.22;57.35;96974.59;6277219;28;20045;-65
2023/10/23 07:34:51;;;;;;;4.18;2.38;;;;;;;1.98;58.21;96970.13;6273387;28;20047;-64
2023/10/23 07:37:54;;;;;;;2.20;1.55;;;;;;;2.11;58.13;96981.84;6272024;28;20057;-65
2023/10/23 07:40:57;;;;;;;2.53;2.00;;;;;;;2.17;57.73;96976.47;6274507;28;20063;-68
2023/10/23 07:44:02;;;;;;;1.63;1.50;;;;;;;2.24;57.75;96969.38;6279898;28;20045;-64
2023/10/23 07:47:04;;;;;;;3.80;1.90;;;;;;;2.22;58.03;96981.53;6283687;28;20072;-66
2023/10/23 07:50:06;;;;;;;3.75;2.10;;;;;;;2.39;57.86;96981.03;6270194;28;20162;-66
2023/10/23 07:53:12;;;;;;;2.67;2.00;;;;;;;2.52;57.34;96984.06;6278734;28;20052;-65
2023/10/23 07:56:16;;;;;;;2.30;2.10;;;;;;;2.52;57.47;96979.75;6279915;28;20545;-66
2023/10/23 07:59:24;;;;;;;3.33;1.77;;;;;;;2.58;56.78;96987.34;6261663;28;20083;-65
2023/10/23 08:02:33;;;;;;;3.72;3.00;;;;;;;2.51;57.05;96961.63;6261395;28;20029;-66
2023/10/23 08:05:41;;;;;;;3.65;1.77;;;;;;;2.61;57.09;96953.50;6285520;28;20037;-65
2023/10/23 08:08:45;;;;;;;3.80;2.05;;;;;;;2.60;56.70;96961.31;6276132;28;20908;-66
2023/10/23 08:11:47;;;;;;;;;;;;;;;2.67;56.91;96963.69;6284281;28;20055;-65
2023/10/23 08:14:52;;;;;;;2.20;1.33;;;;;;;2.79;56.85;96969.38;6280251;28;19939;-70
2023/10/23 08:18:00;;;;;;;3.08;1.45;;;;;;;2.70;57.20;96952.34;6258708;28;20500;-67
2023/10/23 08:21:11;;;;;;;1.40;1.23;;;;;;;2.85;56.80;96936.22;6276631;28;20171;-66
2023/10/23 08:24:13;;;;;;;1.67;0.60;;;;;;;3.01;56.18;96928.78;6278048;28;20049;-64
2023/10/23 08:27:17;;;;;;;2.20;1.23;;;;;;;3.08;56.05;96922.47;6277980;28;20128;-66
2023/10/23 08:30:18;;;;;;;2.97;1.83;;;;;;;3.09;56.07;96921.56;6282895;28;20048;-67
2023/10/23 08:33:20;;;;;;;2.22;1.48;;;;;;;3.07;56.39;96920.78;6278815;28;20036;-67
2023/10/23 08:36:26;;;;;;;1.88;1.10;;;;;;;3.16;55.87;96904.00;6282491;28;20044;-69
2023/10/23 08:39:30;;;;;;;1.30;0.93;;;;;;;3.22;55.47;96915.94;6280609;28;20040;-71
2023/10/23 08:42:34;;;;;;;1.73;1.15;;;;;;;3.30;55.07;96921.72;6284000;28;20037;-67
2023/10/23 08:45:41;;;;;;;2.30;0.90;;;;;;;3.40;54.77;96923.13;6283371;28;20648;-66
2023/10/23 08:48:47;;;;;;;2.83;1.25;;;;;;;3.40;55.28;96917.91;6272039;28;20044;-66
2023/10/23 08:51:51;;;;;;;;;;;;;;;3.57;54.88;96946.75;6289462;28;20064;-67
2023/10/23 08:54:54;;;;;;;2.63;1.50;;;;;;;3.34;55.30;96923.31;6255718;28;20423;-66
2023/10/23 08:57:57;;;;;;;0.68;0.68;;;;;;;3.22;55.39;96908.13;6265090;28;20056;-67
2023/10/23 09:01:03;;;;;;;2.40;1.10;;;;;;;3.08;55.74;96917.25;6263448;28;20041;-67
2023/10/23 09:04:10;;;;;;;1.77;1.15;;;;;;;3.11;55.88;96896.38;6263326;28;20753;-63
2023/10/23 09:07:11;;;;;;;2.55;1.33;;;;;;;2.91;56.49;96893.59;6256681;28;20045;-62
2023/10/23 09:10:18;;;;;;;1.05;0.70;;;;;;;2.94;56.42;96893.50;6263401;28;20152;-62
2023/10/23 09:13:26;;;;;;;1.25;0.60;;;;;;;2.89;56.83;96905.81;6253904;28;20052;-65
2023/10/23 09:16:28;;;;;;;0.57;0.40;;;;;;;2.94;56.60;96888.28;6235548;28;20068;-63
2023/10/23 09:19:40;;;;;;;1.00;0.88;;;;;;;2.90;56.88;96871.13;6254381;28;20419;-63
2023/10/23 09:22:48;;;;;;;1.45;1.25;;;;;;;2.77;57.20;96867.22;6259774;28;20048;-62
2023/10/23 09:25:57;;;;;;;2.90;1.08;;;;;;;2.78;57.45;96882.78;6260250;28;20045;-63
2023/10/23 09:29:01;;;;;;;2.45;1.50;;;;;;;2.66;57.92;96884.06;6256835;28;20056;-63
2023/10/23 09:32:02;;;;;;;1.85;1.10;;;;;;;2.66;58.13;96897.03;6261978;28;20397;-62
2023/10/23 09:35:04;;;;;;;1.48;1.38;;;;;;;2.74;57.62;96885.53;6260820;28;20140;-63
2023/10/23 09:38:16;;;;;;;1.00;0.88;;;;;;;2.66;58.41;96888.38;6245571;28;20068;-63
2023/10/23 09:41:17;;;;;;;3.28;1.92;;;;;;;2.77;58.06;96881.06;6260086;28;20143;-62
2023/10/23 09:44:24;;;;;;;1.95;1.40;;;;;;;2.80;57.73;96870.59;6258008;28;20504;-70
2023/10/23 09:47:38;;;;;;;1.52;1.25;;;;;;;2.88;58.43;96878.94;6243659;28;20140;-64
2023/10/23 09:50:43;;;;;;;2.65;1.55;;;;;;;2.98;58.20;96874.31;6259157;28;20057;-66
2023/10/23 09:53:54;;;;;;;0.98;0.88;;;;;;;3.10;57.58;96858.28;6264108;28;20053;-64
2023/10/23 09:57:03;;;;;;;2.63;1.10;;;;;;;3.22;57.29;96864.78;6286758;28;20056;-64
2023/10/23 10:00:16;;;;;;;2.33;1.38;;;;;;;3.12;57.62;96850.44;6287483;28;20059;-64
2023/10/23 10:03:23;;;;;;;1.23;1.10;;;;;;;3.07;58.02;96853.19;6283279;28;20047;-63
2023/10/23 10:06:26;;;;;;;5.25;1.30;;;;;;;3.02;57.92;96843.84;6281700;28;20140;-68
2023/10/23 10:09:34;;;;;;;1.13;1.00;;;;;;;2.92;58.47;96849.38;6288162;28;20040;-63
2023/10/23 10:12:41;;;;;;;1.05;0.77;;;;;;;2.98;57.86;96834.47;6286878;28;20056;-64
2023/10/23 10:15:49;;;;;;;0.80;0.80;;;;;;;3.11;57.98;96828.78;6283016;28;20048;-64
2023/10/23 10:18:59;;;;;;;0.93;0.77;;;;;;;3.20;58.00;96832.81;6277227;28;20127;-63
2023/10/23 10:22:13;;;;;;;2.53;0.90;;;;;;;3.18;57.99;96833.75;6279687;28;20551;-64
2023/10/23 10:25:18;;;;;;;3.20;1.27;;;;;;;3.34;57.02;96808.88;6280462;28;20060;-65
2023/10/23 10:28:28;;;;;;;1.73;0.95;;;;;;;3.55;56.57;96839.28;6276367;28;20087;-63
2023/10/23 10:32:04;;;;;;;2.08;0.68;;;;;;;3.72;56.21;96845.63;6279375;28;20443;-64
2023/10/23 10:35:25;;;;;;;1.02;0.93;;;;;;;3.57;56.81;96844.47;6280166;28;20052;-64
2023/10/23 10:38:31;;;;;;;2.30;0.75;;;;;;;3.32;57.54;96831.50;6280655;28;20194;-63
2023/10/23 10:41:35;;;;;;;3.25;0.93;;;;;;;3.33;57.37;96859.19;6281727;28;20433;-64
2023/10/23 10:44:53;;;;;;;1.48;1.35;;;;;;;3.19;57.75;96851.03;6276247;28;20045;-64
2023/10/23 10:47:59;;;;;;;1.40;1.00;;;;;;;3.13;57.98;96863.34;6279812;28;20057;-64
2023/10/23 10:51:03;;;;;;;1.48;1.00;;;;;;;3.07;58.34;96862.72;6273061;28;20569;-65
2023/10/23 10:54:11;;;;;;;2.63;1.17;;;;;;;3.08;58.78;96870.47;6250153;28;20140;-63
2023/10/23 10:57:15;;;;;;;2.80;1.20;;;;;;;3.02;58.78;96865.47;6250871;28;20132;-63
2023/10/23 11:00:23;;;;;;;3.30;1.45;;;;;;;3.03;58.51;96846.41;6251758;28;20049;-66
2023/10/23 11:03:32;;;;;;;2.90;1.60;;;;;;;2.86;59.31;96840.91;6258301;28;20122;-68
2023/10/23 11:06:35;;;;;;;3.55;1.55;;;;;;;2.94;59.08;96823.31;6258737;28;20523;-69
2023/10/23 11:09:41;;;;;;;2.80;1.55;;;;;;;2.80;59.51;96843.75;6265721;28;20041;-68
2023/10/23 11:12:47;;;;;;;13.18;2.80;;;;;;;2.96;59.36;96831.91;6236227;28;20372;-69
2023/10/23 11:15:55;;;;;;;1.55;1.00;;;;;;;2.93;59.09;96821.63;6254652;28;20343;-75
2023/10/23 11:19:00;;;;;;;2.60;1.48;;;;;;;2.86;59.43;96834.00;6259111;28;20040;-68
2023/10/23 11:22:24;;;;;;;1.63;1.20;;;;;;;2.85;59.58;96844.44;6261877;28;20079;-69
2023/10/23 11:25:29;;;;;;;2.65;1.73;;;;;;;2.61;60.45;96827.94;6256865;28;20065;-70
2023/10/23 11:28:33;;;;;;;2.75;2.00;;;;;;;2.66;60.42;96816.50;6262473;28;20060;-69
2023/10/23 11:31:39;;;;;;;5.38;2.30;;;;;;;2.69;60.42;96824.19;6256400;28;20583;-71
2023/10/23 11:34:47;;;;;;;2.47;1.90;;;;;;;2.53;60.92;96838.59;6254127;28;20162;-71
2023/10/23 11:37:52;;;;;;;2.05;1.73;;;;;;;2.36;61.57;96838.31;6254646;28;20051;-69
2023/10/23 11:40:58;;;;;;;4.68;2.28;;;;;;;2.38;61.78;96810.56;6256584;28;20516;-69
2023/10/23 11:44:03;;;;;;;3.28;1.92;;;;;;;2.33;62.45;96812.44;6251154;28;20314;-69
2023/10/23 11:47:05;;;;;;;2.25;1.38;;;;;;;2.42;61.57;96822.53;6254951;28;20102;-69
2023/10/23 11:50:10;;;;;;;2.13;1.40;;;;;;;2.44;61.86;96824.16;6259426;28;20044;-68
2023/10/23 11:53:17;;;;;;;2.10;1.77;;;;;;;2.34;61.86;96814.13;6257340;28;20044;-75
2023/10/23 11:56:25;;;;;;;2.10;1.90;;;;;;;2.15;61.96;96787.91;6276356;28;20048;-69
2023/10/23 11:59:29;;;;;;;1.88;1.00;;;;;;;2.51;61.22;96801.44;6277927;28;20199;-70
2023/10/23 12:02:33;;;;;;;2.50;1.77;;;;;;;2.38;61.87;96800.16;6279322;28;20489;-63
2023/10/23 12:05:34;;;;;;;5.07;2.17;;;;;;;2.27;62.36;96787.53;6275338;28;20519;-64
2023/10/23 12:08:40;;;;;;;2.55;1.80;;;;;;;2.11;63.22;96773.34;6273099;28;20423;-64
2023/10/23 12:11:47;;;;;;;2.08;1.85;;;;;;;2.04;63.46;96770.13;6270599;28;20037;-63
2023/10/23 12:14:55;;;;;;;4.65;2.38;;;;;;;1.99;63.06;96761.63;6277148;28;20052;-64
2023/10/23 12:18:05;;;;;;;2.53;1.67;;;;;;;2.18;62.60;96775.72;6287452;28;20071;-64
2023/10/23 12:21:11;;;;;;;1.70;1.30;;;;;;;2.27;62.11;96776.31;6283949;28;20795;-73
2023/10/23 12:24:15;;;;;;;3.63;2.00;;;;;;;2.24;62.11;96778.09;6285576;28;20044;-72
2023/10/23 12:27:23;;;;;;;3.33;1.92;;;;;;;2.22;61.88;96797.22;6284511;28;20037;-67
2023/10/23 12:30:27;;;;;;;3.10;1.58;;;;;;;2.44;61.07;96797.34;6285804;28;20036;-64
2023/10/23 12:33:29;;;;;;;3.13;1.80;;;;;;;2.30;60.83;96796.97;6285422;28;20519;-62
2023/10/23 12:36:36;;;;;;;2.65;2.03;;;;;;;2.46;60.03;96808.50;6291016;28;20036;-62
2023/10/23 12:39:37;;;;;;;1.90;1.40;;;;;;;2.33;60.59;96809.84;6281980;28;20052;-62
2023/10/23 12:42:39;;;;;;;3.33;2.22;;;;;;;2.41;60.28;96802.66;6282219;28;20048;-65
2023/10/23 12:45:46;;;;;;;4.72;2.60;;;;;;;2.28;60.52;96803.94;6285647;28;20115;-64
2023/10/23 12:48:51;;;;;;;6.25;2.33;;;;;;;2.22;60.29;96795.47;6282560;28;20134;-71
2023/10/23 12:51:57;;;;;;;4.45;2.45;;;;;;;2.35;60.08;96795.03;6273928;28;20056;-65
2023/10/23 12:55:01;;;;;;;3.00;1.80;;;;;;;2.34;59.82;96798.56;6285683;28;20045;-75
2023/10/23 12:58:06;;;;;;;2.28;1.15;;;;;;;2.29;60.29;96790.91;6284186;28;20270;-67
2023/10/23 13:01:09;;;;;;;5.38;2.10;;;;;;;2.32;59.76;96784.75;6284017;28;20040;-70
2023/10/23 13:04:13;;;;;;;5.43;2.72;;;;;;;2.17;60.41;96807.75;6276142;28;20131;-65
2023/10/23 13:07:18;;;;;;;4.68;2.97;;;;;;;2.15;60.83;96800.91;6281553;28;20128;-65
2023/10/23 13:10:19;;;;;;;3.20;2.20;;;;;;;2.22;60.82;96800.66;6287717;28;20049;-65
2023/10/23 13:13:21;;;;;;;2.17;1.83;;;;;;;2.25;60.68;96803.16;6283317;28;20044;-65
2023/10/23 13:16:26;;;;;;;5.20;2.65;;;;;;;2.20;60.98;96812.81;6273880;28;20053;-65
2023/10/23 13:19:27;;;;;;;2.63;2.00;;;;;;;2.21;61.29;96806.75;6284168;28;20181;-65
2023/10/23 13:22:29;;;;;;;3.55;2.50;;;;;;;2.15;61.27;96817.34;6285891;28;20435;-65
2023/10/23 13:25:34;;;;;;;6.47;2.30;;;;;;;1.94;61.29;96799.84;6281144;28;20040;-65
2023/10/23 13:28:42;;;;;;;3.08;2.10;;;;;;;2.09;60.75;96809.72;6289068;28;20508;-65
2023/10/23 13:31:48;;;;;;;4.03;1.83;;;;;;;2.09;60.79;96803.69;6287434;28;20059;-65
2023/10/23 13:34:52;;;;;;;3.58;1.55;;;;;;;2.20;59.96;96786.88;6287011;28;20036;-64
2023/10/23 13:37:56;;;;;;;3.25;1.65;;;;;;;2.41;58.18;96779.28;6286746;28;20048;-66
2023/10/23 13:41:05;;;;;;;2.47;1.40;;;;;;;2.38;58.27;96775.03;6284429;28;20052;-65
2023/10/23 13:44:10;;;;;;;3.38;2.08;;;;;;;2.39;57.71;96770.69;6281554;28;20045;-66
2023/10/23 13:47:16;;;;;;;2.03;1.40;;;;;;;2.53;57.03;96784.06;6282256;28;20037;-65
2023/10/23 13:50:22;;;;;;;2.70;1.33;;;;;;;2.40;57.69;96788.78;6279832;28;20041;-65
2023/10/23 13:53:24;;;;;;;2.38;1.45;;;;;;;2.30;58.53;96786.59;6285594;28;20068;-66
2023/10/23 13:56:27;;;;;;;2.70;1.70;;;;;;;2.31;58.55;96794.31;6278337;28;20052;-66
2023/10/23 13:59:29;;;;;;;4.07;1.77;;;;;;;2.24;58.86;96787.63;6282571;28;20053;-65
2023/10/23 14:02:31;;;;;;;2.53;1.58;;;;;;;2.31;58.67;96790.88;6283121;28;20037;-65
2023/10/23 14:05:34;;;;;;;3.15;1.33;;;;;;;2.35;58.63;96771.69;6284258;28;20132;-64
2023/10/23 14:08:43;;;;;;;4.78;2.45;;;;;;;2.39;58.53;96781.06;6282436;28;20048;-66
2023/10/23 14:11:45;;;;;;;5.47;2.50;;;;;;;2.37;58.90;96772.47;6290482;28;20054;-66
2023/10/23 14:14:46;;;;;;;5.00;2.30;;;;;;;2.32;58.88;96780.44;6287085;28;20049;-66
2023/10/23 14:17:51;;;;;;;8.10;2.45;;;;;;;2.38;59.04;96769.00;6286194;28;20057;-65
2023/10/23 14:20:53;;;;;;;4.82;2.15;;;;;;;2.32;59.36;96775.25;6282240;28;20047;-65
2023/10/23 14:24:01;;;;;;;3.05;1.77;;;;;;;2.43;59.25;96772.25;6266684;28;20440;-65
2023/10/23 14:27:06;;;;;;;4.63;1.55;;;;;;;2.44;59.41;96779.19;6283148;28;20051;-65
2023/10/23 14:30:08;;;;;;;1.23;1.05;;;;;;;2.45;59.44;96763.53;6280312;28;20036;-65
2023/10/23 14:33:12;;;;;;;4.60;1.80;;;;;;;2.52;59.45;96750.31;6287713;28;20041;-65
2023/10/23 14:36:16;;;;;;;3.38;1.30;;;;;;;2.65;59.20;96739.44;6288007;28;20048;-65
2023/10/23 14:39:17;;;;;;;4.82;1.80;;;;;;;2.51;59.81;96728.69;6285564;28;20045;-64
2023/10/23 14:42:22;;;;;;;3.50;1.55;;;;;;;2.45;59.92;96726.31;6284427;28;20044;-64